Time;durP1;ratioP1;P1;durP2;ratioP2;P2;SDS_P1;SDS_P2;PMS_P1;PMS_P2;Temp;Humidity;BMP_temperature;BMP_pressure;BME280_temperature;BME280_humidity;BME280_pressure;Samples;Min_cycle;Max_cycle;Signal;HPM_P1;HPM_P2
2021/07/08 00:01:45;;;;;;;14.83;7.70;;;11.50;99.90;;;;;;5069696;28;20179;-68
2021/07/08 00:04:13;;;;;;;12.77;7.00;;;11.60;99.90;;;;;;5081804;28;20767;-69
2021/07/08 00:06:41;;;;;;;16.07;7.10;;;11.70;99.90;;;;;;5084128;28;20225;-72
2021/07/08 00:09:10;;;;;;;12.83;7.17;;;11.80;99.90;;;;;;5075540;28;20207;-73
2021/07/08 00:11:38;;;;;;;12.43;6.60;;;11.90;99.90;;;;;;5075908;28;20179;-67
2021/07/08 00:14:06;;;;;;;11.00;6.50;;;12.00;99.90;;;;;;5078410;28;20182;-68
2021/07/08 00:16:34;;;;;;;7.47;5.13;;;12.20;99.90;;;;;;5044914;28;20668;-71
2021/07/08 00:19:02;;;;;;;6.80;4.70;;;12.30;99.90;;;;;;5072904;28;20263;-67
2021/07/08 00:21:29;;;;;;;12.73;4.50;;;12.50;99.90;;;;;;5074697;28;20176;-67
2021/07/08 00:23:57;;;;;;;10.00;5.33;;;12.50;99.90;;;;;;5078058;28;20210;-71
2021/07/08 00:26:24;;;;;;;9.97;4.87;;;12.60;99.90;;;;;;5074856;28;20532;-67
2021/07/08 00:28:52;;;;;;;8.43;5.47;;;12.80;99.90;;;;;;5083441;28;20217;-68
2021/07/08 00:31:20;;;;;;;10.20;4.77;;;12.90;99.90;;;;;;5073994;28;20219;-67
2021/07/08 00:33:49;;;;;;;8.00;4.60;;;13.00;99.90;;;;;;5052639;28;20179;-67
2021/07/08 00:36:19;;;;;;;10.23;4.60;;;13.00;99.90;;;;;;5074923;28;20262;-70
2021/07/08 00:38:47;;;;;;;8.40;4.90;;;13.10;99.90;;;;;;5074303;28;20175;-71
2021/07/08 00:41:14;;;;;;;13.33;5.20;;;13.20;99.90;;;;;;5078384;28;20183;-68
2021/07/08 00:43:42;;;;;;;6.23;4.37;;;13.30;99.90;;;;;;5074537;28;20211;-68
2021/07/08 00:46:09;;;;;;;13.27;4.77;;;13.30;99.90;;;;;;5073584;28;20270;-68
2021/07/08 00:48:37;;;;;;;13.17;5.97;;;13.40;99.90;;;;;;5082095;28;20197;-69
2021/07/08 00:51:04;;;;;;;8.93;4.63;;;13.40;99.90;;;;;;5078519;28;20187;-72
2021/07/08 00:53:31;;;;;;;18.70;5.47;;;13.40;99.90;;;;;;5070553;28;21136;-68
2021/07/08 00:56:02;;;;;;;7.90;5.60;;;13.60;99.90;;;;;;5073005;28;20179;-72
2021/07/08 00:58:29;;;;;;;10.60;4.70;;;13.60;99.90;;;;;;5073341;28;20194;-71
2021/07/08 01:00:57;;;;;;;6.43;4.30;;;13.60;99.90;;;;;;5073052;28;20191;-70
2021/07/08 01:03:25;;;;;;;11.10;5.17;;;13.80;99.90;;;;;;5070838;28;20190;-68
2021/07/08 01:05:56;;;;;;;13.67;5.30;;;13.80;99.90;;;;;;5077098;28;20183;-67
2021/07/08 01:08:23;;;;;;;11.73;4.87;;;13.90;99.90;;;;;;5072914;28;20183;-66
2021/07/08 01:10:51;;;;;;;10.83;4.57;;;14.10;99.90;;;;;;5074169;28;20237;-67
2021/07/08 01:13:21;;;;;;;8.30;5.17;;;14.30;99.90;;;;;;5052926;28;20324;-68
2021/07/08 01:15:49;;;;;;;6.83;5.13;;;14.30;99.90;;;;;;5073249;28;20187;-68
2021/07/08 01:18:17;;;;;;;9.83;5.07;;;14.30;99.90;;;;;;5056452;28;20214;-69
2021/07/08 01:20:45;;;;;;;7.30;4.47;;;14.50;99.90;;;;;;5064131;28;20183;-68
2021/07/08 01:23:12;;;;;;;8.97;4.50;;;14.60;99.90;;;;;;5068580;28;20694;-68
2021/07/08 01:25:43;;;;;;;8.10;4.30;;;14.70;99.90;;;;;;5071032;28;20302;-68
2021/07/08 01:28:11;;;;;;;5.63;3.90;;;14.80;99.90;;;;;;5076613;28;20206;-66
2021/07/08 01:30:43;;;;;;;6.97;4.10;;;14.90;99.90;;;;;;5069949;28;20651;-71
2021/07/08 01:33:11;;;;;;;13.17;4.90;;;15.20;99.90;;;;;;5069801;28;20179;-69
2021/07/08 01:35:38;;;;;;;8.03;5.13;;;15.10;99.90;;;;;;5072832;28;20268;-67
2021/07/08 01:38:06;;;;;;;9.70;5.67;;;15.20;99.90;;;;;;5069304;28;20183;-68
2021/07/08 01:40:33;;;;;;;10.20;5.50;;;15.30;99.90;;;;;;5072658;28;20183;-67
2021/07/08 01:43:00;;;;;;;7.97;5.53;;;15.40;99.90;;;;;;5067242;28;21245;-68
2021/07/08 01:45:28;;;;;;;6.87;5.17;;;15.60;99.90;;;;;;5070845;28;20658;-69
2021/07/08 01:47:55;;;;;;;14.03;5.70;;;15.70;99.90;;;;;;5069441;28;20190;-70
2021/07/08 01:50:23;;;;;;;9.30;4.93;;;15.50;99.90;;;;;;5070736;28;20178;-71
2021/07/08 01:52:50;;;;;;;10.83;5.17;;;15.50;99.90;;;;;;5056266;28;20261;-67
2021/07/08 01:55:18;;;;;;;8.63;4.67;;;15.50;99.90;;;;;;5073980;28;20186;-68
2021/07/08 01:57:51;;;;;;;8.73;4.50;;;15.60;99.90;;;;;;5079080;28;20171;-67
2021/07/08 02:00:21;;;;;;;10.00;4.40;;;15.80;99.90;;;;;;5072703;28;20182;-66
2021/07/08 02:02:49;;;;;;;13.60;4.60;;;16.20;99.90;;;;;;5070933;28;20179;-67
2021/07/08 02:05:17;;;;;;;14.77;5.03;;;16.30;99.90;;;;;;5066198;28;20225;-69
2021/07/08 02:07:44;;;;;;;7.00;4.73;;;16.50;99.90;;;;;;5065748;28;20197;-68
2021/07/08 02:10:13;;;;;;;7.83;4.37;;;16.80;99.90;;;;;;5066607;28;20190;-72
2021/07/08 02:12:41;;;;;;;10.30;5.70;;;16.60;99.90;;;;;;5068156;28;20668;-70
2021/07/08 02:15:10;;;;;;;9.97;4.57;;;16.50;99.90;;;;;;5071987;28;20251;-68
2021/07/08 02:17:39;;;;;;;7.00;5.03;;;16.40;99.90;;;;;;5067196;28;20187;-69
2021/07/08 02:20:09;;;;;;;12.00;5.50;;;16.60;99.90;;;;;;5073776;28;20186;-68
2021/07/08 02:22:36;;;;;;;9.53;4.67;;;16.50;99.90;;;;;;5071552;28;20222;-69
2021/07/08 02:25:05;;;;;;;7.60;4.90;;;16.30;99.90;;;;;;5053892;28;20680;-68
2021/07/08 02:27:37;;;;;;;9.67;4.80;;;16.30;99.90;;;;;;5071509;28;20719;-67
2021/07/08 02:30:12;;;;;;;10.33;4.67;;;16.30;99.90;;;;;;5074104;28;20243;-67
2021/07/08 02:32:41;;;;;;;6.83;4.43;;;16.20;99.90;;;;;;5066928;28;20296;-67
2021/07/08 02:35:09;;;;;;;7.83;4.90;;;16.20;99.90;;;;;;5072889;28;20189;-69
2021/07/08 02:37:38;;;;;;;6.30;4.43;;;16.20;99.90;;;;;;5070799;28;20282;-68
2021/07/08 02:40:14;;;;;;;7.63;4.63;;;16.20;99.90;;;;;;5066880;28;20178;-69
2021/07/08 02:42:46;;;;;;;12.10;4.47;;;16.30;99.90;;;;;;5067985;28;20183;-68
2021/07/08 02:45:14;;;;;;;8.00;5.27;;;16.50;99.90;;;;;;5072130;28;20218;-70
2021/07/08 02:47:42;;;;;;;12.23;5.17;;;16.60;99.90;;;;;;5072448;28;20174;-70
2021/07/08 02:50:09;;;;;;;8.73;5.10;;;16.80;99.90;;;;;;5077314;28;20186;-78
2021/07/08 02:52:37;;;;;;;7.17;4.40;;;16.70;99.90;;;;;;5086271;28;20179;-76
2021/07/08 02:55:06;;;;;;;8.77;4.37;;;16.70;99.90;;;;;;5082085;28;20266;-73
2021/07/08 02:57:33;;;;;;;16.57;4.27;;;17.00;99.90;;;;;;5074695;28;20262;-74
2021/07/08 03:00:01;;;;;;;13.73;4.70;;;17.10;99.90;;;;;;5075418;28;20638;-75
2021/07/08 03:02:28;;;;;;;13.30;4.67;;;17.30;99.90;;;;;;5075287;28;20663;-76
2021/07/08 03:04:56;;;;;;;12.53;5.33;;;17.20;99.90;;;;;;5073226;28;20226;-72
2021/07/08 03:07:23;;;;;;;9.60;4.97;;;16.80;99.90;;;;;;5066669;28;20518;-76
2021/07/08 03:09:50;;;;;;;14.30;5.67;;;16.80;99.90;;;;;;5074872;28;20186;-76
2021/07/08 03:12:17;;;;;;;16.87;5.20;;;16.90;99.90;;;;;;5077179;28;20346;-73
2021/07/08 03:14:45;;;;;;;10.97;5.33;;;17.00;99.90;;;;;;5078754;28;20175;-69
2021/07/08 03:17:14;;;;;;;8.53;4.57;;;17.00;99.90;;;;;;5078085;28;20313;-71
2021/07/08 03:19:41;;;;;;;7.93;4.30;;;17.30;99.90;;;;;;5078172;28;20215;-74
2021/07/08 03:22:08;;;;;;;9.17;4.43;;;17.60;99.90;;;;;;5076613;28;20227;-69
2021/07/08 03:24:36;;;;;;;10.57;4.67;;;17.90;99.90;;;;;;5069423;28;20211;-69
2021/07/08 03:27:03;;;;;;;11.40;4.50;;;17.60;99.90;;;;;;5076544;28;20233;-72
2021/07/08 03:29:31;;;;;;;7.30;4.50;;;17.60;99.90;;;;;;5077228;28;20187;-69
2021/07/08 03:31:58;;;;;;;12.17;5.33;;;17.60;99.90;;;;;;5075696;28;20189;-72
2021/07/08 03:34:26;;;;;;;11.23;4.70;;;17.90;99.90;;;;;;5082897;28;20182;-70
2021/07/08 03:36:53;;;;;;;11.83;4.97;;;18.30;99.90;;;;;;5079063;28;20186;-70
2021/07/08 03:39:20;;;;;;;10.27;4.83;;;18.30;99.70;;;;;;5078022;28;20191;-76
2021/07/08 03:41:48;;;;;;;11.37;4.70;;;18.10;99.10;;;;;;5076921;28;20266;-71
2021/07/08 03:44:15;;;;;;;8.43;4.80;;;18.40;99.40;;;;;;5077500;28;20256;-70
2021/07/08 03:46:43;;;;;;;9.80;4.80;;;18.70;98.70;;;;;;5078386;28;20175;-69
2021/07/08 03:49:10;;;;;;;6.80;4.43;;;19.20;98.50;;;;;;5079214;28;20171;-73
2021/07/08 03:51:39;;;;;;;14.20;4.97;;;19.60;98.00;;;;;;5078071;28;20172;-71
2021/07/08 03:54:07;;;;;;;8.80;4.80;;;19.20;97.40;;;;;;5077374;28;20175;-71
2021/07/08 03:56:34;;;;;;;10.83;5.07;;;18.40;98.60;;;;;;5077845;28;20268;-70
2021/07/08 03:59:01;;;;;;;5.60;3.97;;;18.70;99.00;;;;;;5076798;28;20305;-70
2021/07/08 04:01:32;;;;;;;7.47;4.13;;;19.20;98.10;;;;;;5077521;28;20179;-68
2021/07/08 04:03:59;;;;;;;12.87;4.30;;;19.30;98.10;;;;;;5077886;28;20241;-70
2021/07/08 04:06:26;;;;;;;7.40;4.23;;;19.20;97.80;;;;;;5078450;28;20221;-74
2021/07/08 04:08:54;;;;;;;5.63;3.93;;;18.80;97.90;;;;;;5078788;28;20183;-77
2021/07/08 04:11:22;;;;;;;10.53;3.83;;;18.50;99.10;;;;;;5071282;28;20179;-71
2021/07/08 04:13:50;;;;;;;11.93;3.40;;;18.10;99.50;;;;;;5077081;28;20630;-71
2021/07/08 04:16:17;;;;;;;8.67;3.70;;;18.10;99.80;;;;;;5075733;28;20199;-69
2021/07/08 04:18:45;;;;;;;10.07;3.77;;;18.70;99.00;;;;;;5076523;28;20210;-69
2021/07/08 04:21:12;;;;;;;7.60;3.30;;;18.70;99.00;;;;;;5074058;28;20642;-70
2021/07/08 04:23:39;;;;;;;9.13;3.77;;;18.90;98.00;;;;;;5074227;28;20247;-69
2021/07/08 04:26:07;;;;;;;10.60;3.53;;;18.70;98.40;;;;;;5073448;28;20564;-69
2021/07/08 04:28:34;;;;;;;8.50;3.10;;;18.70;98.60;;;;;;5057306;28;20205;-70
2021/07/08 04:31:03;;;;;;;6.27;2.50;;;18.70;98.40;;;;;;5075828;28;20574;-71
2021/07/08 04:33:31;;;;;;;6.90;2.50;;;18.40;99.10;;;;;;5074532;28;20637;-70
2021/07/08 04:35:58;;;;;;;4.67;2.10;;;18.20;99.40;;;;;;5059071;28;20198;-77
2021/07/08 04:38:26;;;;;;;6.47;2.00;;;18.10;99.90;;;;;;5058230;28;20750;-68
2021/07/08 04:40:53;;;;;;;5.07;2.07;;;17.90;99.90;;;;;;5076118;28;20197;-70
2021/07/08 04:43:20;;;;;;;7.33;2.17;;;17.80;99.90;;;;;;5075688;28;20186;-68
2021/07/08 04:45:51;;;;;;;5.93;2.17;;;17.50;99.90;;;;;;5075327;28;20207;-69
2021/07/08 04:48:19;;;;;;;8.13;2.47;;;17.50;99.90;;;;;;5074677;28;20184;-69
2021/07/08 04:50:46;;;;;;;6.43;1.60;;;17.60;99.90;;;;;;5074525;28;20259;-70
2021/07/08 04:53:18;;;;;;;6.57;2.17;;;17.60;99.90;;;;;;5073610;28;20203;-69
2021/07/08 04:55:46;;;;;;;5.97;2.10;;;17.80;99.90;;;;;;5073255;28;20175;-70
2021/07/08 04:58:14;;;;;;;5.73;2.10;;;17.90;99.90;;;;;;5070517;28;20198;-71
2021/07/08 05:00:41;;;;;;;9.00;2.60;;;17.70;99.90;;;;;;5074558;28;20206;-72
2021/07/08 05:03:10;;;;;;;5.80;1.90;;;17.60;99.90;;;;;;5069000;28;20179;-68
2021/07/08 05:05:38;;;;;;;4.93;1.97;;;17.70;99.90;;;;;;5073880;28;20541;-80
2021/07/08 05:08:06;;;;;;;6.30;1.93;;;17.60;99.90;;;;;;5071470;28;20267;-77
2021/07/08 05:10:36;;;;;;;5.70;1.90;;;17.50;99.90;;;;;;5076190;28;20248;-68
2021/07/08 05:13:04;;;;;;;5.63;1.97;;;17.30;99.90;;;;;;5069730;28;20210;-73
2021/07/08 05:15:31;;;;;;;4.87;2.13;;;17.10;99.90;;;;;;5074527;28;20704;-78
2021/07/08 05:17:58;;;;;;;8.13;2.20;;;16.90;99.90;;;;;;5077141;28;20179;-73
2021/07/08 05:20:27;;;;;;;4.93;2.07;;;16.90;99.90;;;;;;5072896;28;20179;-75
2021/07/08 05:23:04;;;;;;;6.63;2.53;;;16.90;99.90;;;;;;5067095;28;20262;-74
2021/07/08 05:25:31;;;;;;;7.37;1.70;;;16.80;99.90;;;;;;5072367;28;20259;-77
2021/07/08 05:27:59;;;;;;;6.00;1.90;;;16.60;99.90;;;;;;5072658;28;20186;-72
2021/07/08 05:30:26;;;;;;;8.00;2.50;;;16.50;99.90;;;;;;5057475;28;20181;-70
2021/07/08 05:32:56;;;;;;;12.20;2.40;;;16.40;99.90;;;;;;5056164;28;20182;-75
2021/07/08 05:35:24;;;;;;;8.20;2.10;;;16.40;99.90;;;;;;5075682;28;20268;-69
2021/07/08 05:37:52;;;;;;;6.65;2.40;;;16.30;99.90;;;;;;5067327;28;20898;-70
2021/07/08 05:40:20;;;;;;;7.20;2.43;;;16.20;99.90;;;;;;5092753;28;20718;-71
2021/07/08 05:42:47;;;;;;;8.00;1.83;;;16.30;99.90;;;;;;5074258;28;20179;-69
2021/07/08 05:45:15;;;;;;;6.23;2.30;;;16.40;99.90;;;;;;5072286;28;20225;-72
2021/07/08 05:47:42;;;;;;;9.13;2.30;;;16.50;99.90;;;;;;5072513;28;20598;-70
2021/07/08 05:50:10;;;;;;;12.67;2.27;;;16.60;99.90;;;;;;5078851;28;20182;-69
2021/07/08 05:52:37;;;;;;;5.03;2.10;;;16.70;99.90;;;;;;5074566;28;20250;-72
2021/07/08 05:55:05;;;;;;;13.10;2.30;;;16.70;99.90;;;;;;5072928;28;20198;-71
2021/07/08 05:57:33;;;;;;;8.87;2.13;;;17.00;99.90;;;;;;5073553;28;20198;-74
2021/07/08 06:00:01;;;;;;;6.77;1.90;;;17.10;99.90;;;;;;5073410;28;20646;-72
2021/07/08 06:02:29;;;;;;;8.23;2.60;;;17.30;99.90;;;;;;5057230;28;20302;-69
2021/07/08 06:04:56;;;;;;;5.00;2.60;;;17.50;99.90;;;;;;5055611;28;20230;-70
2021/07/08 06:07:24;;;;;;;4.93;2.20;;;17.30;99.90;;;;;;5073683;28;20222;-71
2021/07/08 06:09:51;;;;;;;8.33;3.60;;;17.10;99.90;;;;;;5071159;28;20186;-69
2021/07/08 06:12:19;;;;;;;5.23;2.33;;;16.90;99.90;;;;;;5074178;28;20193;-70
2021/07/08 06:14:46;;;;;;;9.00;2.03;;;16.60;99.90;;;;;;5075411;28;20190;-80
2021/07/08 06:17:13;;;;;;;6.07;2.00;;;16.40;99.90;;;;;;5077678;28;20171;-76
2021/07/08 06:19:41;;;;;;;7.43;2.53;;;16.30;99.90;;;;;;5075601;28;20179;-75
2021/07/08 06:22:08;;;;;;;5.70;2.23;;;16.20;99.90;;;;;;5061595;28;20228;-71
2021/07/08 06:24:35;;;;;;;5.07;1.87;;;16.00;99.90;;;;;;5036675;28;20573;-69
2021/07/08 06:27:03;;;;;;;10.53;2.37;;;15.90;99.90;;;;;;5055483;28;20170;-75
2021/07/08 06:29:30;;;;;;;20.30;3.03;;;15.70;99.90;;;;;;5054284;28;20705;-69
2021/07/08 06:31:58;;;;;;;6.63;2.67;;;15.60;99.90;;;;;;5055026;28;20187;-71
2021/07/08 06:34:25;;;;;;;7.73;2.47;;;15.50;99.90;;;;;;5076992;28;20176;-72
2021/07/08 06:36:53;;;;;;;7.27;2.10;;;15.40;99.90;;;;;;5072614;28;20170;-71
2021/07/08 06:39:20;;;;;;;6.13;2.13;;;15.40;99.90;;;;;;5072488;28;20657;-70
2021/07/08 06:41:47;;;;;;;12.03;3.27;;;15.30;99.90;;;;;;5072116;28;20171;-71
2021/07/08 06:44:15;;;;;;;6.37;2.47;;;15.30;99.90;;;;;;5070861;28;20234;-68
2021/07/08 06:46:49;;;;;;;7.47;2.23;;;15.20;99.90;;;;;;5072169;28;20533;-71
2021/07/08 06:49:16;;;;;;;10.93;2.93;;;15.20;99.90;;;;;;5071828;28;20187;-71
2021/07/08 06:51:44;;;;;;;20.57;3.70;;;15.10;99.90;;;;;;5072026;28;20183;-68
2021/07/08 06:54:11;;;;;;;7.93;2.73;;;15.00;99.90;;;;;;5060886;28;20217;-70
2021/07/08 06:56:38;;;;;;;9.67;2.60;;;15.00;99.90;;;;;;5067733;28;20649;-74
2021/07/08 06:59:05;;;;;;;10.30;2.17;;;14.90;99.90;;;;;;5061647;28;20175;-70
2021/07/08 07:01:33;;;;;;;6.83;2.43;;;14.90;99.90;;;;;;5076912;28;20323;-73
2021/07/08 07:04:00;;;;;;;5.30;2.40;;;14.80;99.90;;;;;;5072029;28;20203;-73
2021/07/08 07:06:27;;;;;;;6.43;2.30;;;14.70;99.90;;;;;;5072362;28;20175;-69
2021/07/08 07:08:55;;;;;;;8.53;2.50;;;14.70;99.90;;;;;;5072196;28;20261;-76
2021/07/08 07:11:22;;;;;;;3.97;2.47;;;14.60;99.90;;;;;;5072437;28;20566;-73
2021/07/08 07:13:50;;;;;;;10.00;2.90;;;14.50;99.90;;;;;;5072953;28;20168;-69
2021/07/08 07:16:19;;;;;;;7.57;3.00;;;14.50;99.90;;;;;;5072607;28;20191;-68
2021/07/08 07:18:46;;;;;;;9.90;3.43;;;14.50;99.90;;;;;;5073050;28;20714;-68
2021/07/08 07:21:15;;;;;;;4.87;2.50;;;14.40;99.90;;;;;;5080179;28;20183;-70
2021/07/08 07:23:43;;;;;;;12.03;2.80;;;14.30;99.90;;;;;;5073404;28;20219;-70
2021/07/08 07:26:11;;;;;;;6.97;2.77;;;14.30;99.90;;;;;;5071920;28;20225;-71
2021/07/08 07:28:39;;;;;;;8.30;2.90;;;14.20;99.90;;;;;;5072730;28;20685;-77
2021/07/08 07:31:07;;;;;;;5.27;2.40;;;14.10;99.90;;;;;;5072387;28;20254;-69
2021/07/08 07:33:34;;;;;;;8.00;3.03;;;14.10;99.90;;;;;;5075663;28;20258;-68
2021/07/08 07:36:01;;;;;;;7.67;2.60;;;14.10;99.90;;;;;;5074101;28;20602;-69
2021/07/08 07:38:29;;;;;;;11.67;2.97;;;14.00;99.90;;;;;;5073984;28;20703;-73
2021/07/08 07:40:57;;;;;;;10.30;2.90;;;13.90;99.90;;;;;;5073360;28;20179;-69
2021/07/08 07:43:24;;;;;;;8.93;2.60;;;13.90;99.90;;;;;;5075746;28;20184;-72
2021/07/08 07:45:52;;;;;;;7.10;2.70;;;13.90;99.90;;;;;;5082444;28;20677;-70
2021/07/08 07:48:19;;;;;;;7.70;3.07;;;13.80;99.90;;;;;;5075329;28;20184;-72
2021/07/08 07:50:47;;;;;;;8.60;2.80;;;13.70;99.90;;;;;;5077107;28;20259;-68
2021/07/08 07:53:14;;;;;;;10.43;3.17;;;13.70;99.90;;;;;;5090140;28;20175;-79
2021/07/08 07:55:42;;;;;;;12.43;3.30;;;13.70;99.90;;;;;;5080642;28;20168;-71
2021/07/08 07:58:10;;;;;;;11.23;2.80;;;13.60;99.90;;;;;;5077956;28;20591;-68
2021/07/08 08:00:37;;;;;;;11.73;3.37;;;13.60;99.90;;;;;;5076710;28;20936;-73
2021/07/08 08:03:05;;;;;;;8.67;3.43;;;13.60;99.90;;;;;;5077493;28;20722;-70
2021/07/08 08:10:50;;;;;;;13.17;4.40;;;13.60;99.90;;;;;;5091605;28;20199;-70
2021/07/08 08:13:17;;;;;;;15.47;4.50;;;13.60;99.90;;;;;;5063106;28;20183;-69
2021/07/08 08:15:45;;;;;;;15.13;5.10;;;13.60;99.90;;;;;;5061396;28;20173;-70
2021/07/08 08:18:13;;;;;;;16.00;4.70;;;13.70;99.90;;;;;;5073767;28;20187;-70
2021/07/08 08:20:40;;;;;;;16.73;4.50;;;13.60;99.90;;;;;;5060326;28;20674;-77
2021/07/08 08:23:08;;;;;;;7.90;4.50;;;13.60;99.90;;;;;;5087406;28;20224;-76
2021/07/08 08:25:36;;;;;;;16.50;4.60;;;13.60;99.90;;;;;;5077926;28;20215;-70
2021/07/08 08:28:04;;;;;;;12.03;4.17;;;13.60;99.90;;;;;;5054945;28;20189;-70
2021/07/08 08:30:31;;;;;;;11.20;5.10;;;13.60;99.90;;;;;;5069304;28;20172;-69
2021/07/08 08:32:59;;;;;;;16.07;5.37;;;13.50;99.90;;;;;;5083728;28;20180;-70
2021/07/08 08:35:26;;;;;;;10.40;4.50;;;13.50;99.90;;;;;;5079792;28;20249;-69
2021/07/08 08:37:54;;;;;;;11.87;4.97;;;13.50;99.90;;;;;;5092384;28;20592;-68
2021/07/08 08:40:22;;;;;;;15.13;5.30;;;13.40;99.90;;;;;;5075781;28;20543;-69
2021/07/08 08:42:50;;;;;;;11.50;4.77;;;13.40;99.90;;;;;;5076025;28;20649;-69
2021/07/08 08:45:18;;;;;;;14.60;5.33;;;13.40;99.90;;;;;;5080138;28;20684;-68
2021/07/08 08:48:12;;;;;;;16.90;5.97;;;13.30;99.90;;;;;;5074504;28;20180;-69
2021/07/08 08:50:42;;;;;;;16.03;5.87;;;13.40;99.90;;;;;;5091190;28;20695;-67
2021/07/08 08:53:11;;;;;;;13.53;5.40;;;13.30;99.90;;;;;;5073843;28;20203;-68
2021/07/08 08:55:41;;;;;;;16.63;5.57;;;13.30;99.90;;;;;;5036405;28;20233;-69
2021/07/08 08:58:11;;;;;;;12.93;6.37;;;13.30;99.90;;;;;;5072108;28;20175;-67
2021/07/08 09:00:46;;;;;;;16.87;7.30;;;13.30;99.90;;;;;;5074449;28;20175;-68
2021/07/08 09:03:16;;;;;;;16.53;6.97;;;13.20;99.90;;;;;;5075240;28;20521;-68
2021/07/08 09:05:48;;;;;;;14.60;7.73;;;13.20;99.90;;;;;;5084967;28;20204;-67
2021/07/08 09:08:21;;;;;;;12.87;7.10;;;13.10;99.90;;;;;;5074219;28;20628;-68
2021/07/08 09:11:22;;;;;;;14.97;6.83;;;13.10;99.90;;;;;;5074084;28;20187;-68
2021/07/08 09:14:04;;;;;;;23.00;7.97;;;13.00;99.90;;;;;;5052072;28;20546;-68
2021/07/08 09:16:31;;;;;;;29.40;10.30;;;13.00;99.90;;;;;;5074597;28;20538;-67
2021/07/08 09:19:06;;;;;;;17.87;8.80;;;13.00;99.90;;;;;;5073939;28;20574;-68
2021/07/08 09:21:43;;;;;;;36.50;9.47;;;13.00;99.90;;;;;;5083798;28;20328;-71
2021/07/08 09:24:17;;;;;;;22.93;9.10;;;13.00;99.90;;;;;;5073902;28;20226;-69
2021/07/08 09:27:08;;;;;;;35.07;10.00;;;13.00;99.90;;;;;;5073921;28;20175;-68
2021/07/08 09:29:44;;;;;;;18.67;9.73;;;12.90;99.90;;;;;;5058092;28;20250;-68
2021/07/08 09:32:19;;;;;;;29.30;10.20;;;12.90;99.90;;;;;;5073978;28;20178;-68
2021/07/08 09:34:54;;;;;;;22.03;10.40;;;12.90;99.90;;;;;;5084221;28;20179;-67
2021/07/08 09:37:24;;;;;;;31.70;12.47;;;12.90;99.90;;;;;;5059929;28;20268;-67
2021/07/08 09:39:56;;;;;;;24.67;11.03;;;12.90;99.90;;;;;;5073997;28;20533;-74
2021/07/08 09:42:39;;;;;;;22.63;10.97;;;12.90;99.90;;;;;;5072237;28;20167;-68
2021/07/08 09:45:14;;;;;;;35.57;13.40;;;12.80;99.90;;;;;;5074598;28;20214;-68
2021/07/08 09:47:42;;;;;;;24.33;11.53;;;12.80;99.90;;;;;;5073612;28;20174;-68
2021/07/08 09:50:12;;;;;;;23.93;9.77;;;12.70;99.90;;;;;;5073500;28;20686;-67
2021/07/08 09:52:40;;;;;;;20.60;9.50;;;12.70;99.90;;;;;;5064941;28;20325;-73
2021/07/08 09:55:18;;;;;;;23.40;10.67;;;12.70;99.90;;;;;;5055125;28;20216;-77
2021/07/08 09:57:47;;;;;;;19.87;9.47;;;12.60;99.90;;;;;;5071022;28;20195;-75
2021/07/08 10:00:31;;;;;;;18.47;9.47;;;12.60;99.90;;;;;;5063947;28;20184;-78
2021/07/08 10:02:59;;;;;;;20.60;8.57;;;12.60;99.90;;;;;;5072979;28;20171;-78
2021/07/08 10:05:27;;;;;;;20.63;9.07;;;12.60;99.90;;;;;;5073289;28;20214;-69
2021/07/08 10:07:54;;;;;;;22.67;9.50;;;12.60;99.90;;;;;;5085354;28;20208;-74
2021/07/08 10:10:22;;;;;;;16.20;9.53;;;12.50;99.90;;;;;;5074034;28;20580;-78
2021/07/08 10:12:50;;;;;;;20.83;10.87;;;12.50;99.90;;;;;;5081903;28;20331;-75
2021/07/08 10:15:18;;;;;;;21.63;11.33;;;12.40;99.90;;;;;;5076088;28;20388;-68
2021/07/08 10:17:46;;;;;;;20.83;10.63;;;12.40;99.90;;;;;;5082820;28;20191;-71
2021/07/08 10:20:15;;;;;;;17.00;10.50;;;12.40;99.90;;;;;;5082514;28;20210;-70
2021/07/08 10:22:43;;;;;;;23.17;10.80;;;12.40;99.90;;;;;;5065833;28;20233;-68
2021/07/08 10:25:14;;;;;;;25.60;12.33;;;12.40;99.90;;;;;;5075768;28;20554;-70
2021/07/08 10:27:46;;;;;;;19.87;11.50;;;12.40;99.90;;;;;;5082747;28;20182;-73
2021/07/08 10:30:14;;;;;;;25.17;11.13;;;12.40;99.90;;;;;;5082971;28;20183;-71
2021/07/08 10:32:43;;;;;;;23.00;11.43;;;12.40;99.90;;;;;;5077047;28;20180;-69
2021/07/08 10:35:10;;;;;;;23.33;10.70;;;12.30;99.90;;;;;;5077043;28;20179;-75
2021/07/08 10:37:43;;;;;;;19.80;9.10;;;12.30;99.90;;;;;;5081824;28;20244;-69
2021/07/08 10:40:31;;;;;;;16.93;8.70;;;12.20;99.90;;;;;;5089889;28;20201;-70
2021/07/08 10:43:13;;;;;;;16.10;9.07;;;12.20;99.90;;;;;;5075758;28;20182;-73
2021/07/08 10:45:42;;;;;;;24.50;9.53;;;12.20;99.90;;;;;;5075916;28;20696;-67
2021/07/08 10:48:14;;;;;;;20.60;9.70;;;12.20;99.90;;;;;;5081878;28;20175;-68
2021/07/08 10:50:49;;;;;;;19.87;9.17;;;12.20;99.90;;;;;;5089467;28;20530;-71
2021/07/08 10:53:27;;;;;;;16.93;9.57;;;12.20;99.90;;;;;;5061270;28;20197;-68
2021/07/08 10:55:56;;;;;;;18.80;9.57;;;12.10;99.90;;;;;;5068033;28;20652;-75
2021/07/08 10:58:43;;;;;;;19.47;9.13;;;12.00;99.90;;;;;;5074650;28;20183;-71
2021/07/08 11:01:35;;;;;;;19.47;9.30;;;12.00;99.90;;;;;;5059301;28;20184;-67
2021/07/08 11:04:03;;;;;;;16.67;9.13;;;12.00;99.90;;;;;;5064080;28;20568;-70
2021/07/08 11:06:39;;;;;;;21.23;9.70;;;11.90;99.90;;;;;;5074764;28;20195;-70
2021/07/08 11:09:18;;;;;;;17.10;9.80;;;11.80;99.90;;;;;;5075006;28;20187;-72
2021/07/08 11:11:50;;;;;;;19.10;10.80;;;11.80;99.90;;;;;;5075180;28;20659;-68
2021/07/08 11:14:19;;;;;;;21.30;10.47;;;11.80;99.90;;;;;;5072983;28;20182;-73
2021/07/08 11:17:01;;;;;;;19.73;9.60;;;11.70;99.90;;;;;;5073927;28;20186;-75
2021/07/08 11:19:51;;;;;;;25.37;10.87;;;11.70;99.90;;;;;;5075978;28;20218;-69
2021/07/08 11:22:34;;;;;;;21.03;11.03;;;11.60;99.90;;;;;;5077071;28;20265;-70
2021/07/08 11:25:03;;;;;;;24.57;12.07;;;11.60;99.90;;;;;;5081236;28;20258;-72
2021/07/08 11:27:34;;;;;;;21.87;11.43;;;11.60;99.90;;;;;;5077960;28;20171;-75
2021/07/08 11:30:16;;;;;;;23.13;12.03;;;11.60;99.90;;;;;;5083395;28;20178;-69
2021/07/08 11:35:31;;;;;;;27.40;12.67;;;11.60;99.90;;;;;;5088971;28;20253;-68
2021/07/08 11:38:18;;;;;;;28.27;15.40;;;11.60;99.90;;;;;;5071669;28;20873;-68
2021/07/08 11:40:51;;;;;;;24.63;13.27;;;11.60;99.90;;;;;;5077431;28;21428;-68
2021/07/08 11:43:33;;;;;;;30.70;14.97;;;11.60;99.90;;;;;;5073569;28;20171;-69
2021/07/08 11:46:08;;;;;;;28.90;13.57;;;11.50;99.90;;;;;;5076390;28;20691;-68
2021/07/08 11:48:38;;;;;;;27.37;13.63;;;11.50;99.90;;;;;;5063228;28;20630;-73
2021/07/08 11:51:17;;;;;;;31.67;14.60;;;11.50;99.90;;;;;;5077181;28;20676;-70
2021/07/08 11:53:46;;;;;;;26.47;13.87;;;11.40;99.90;;;;;;5076394;28;20514;-68
2021/07/08 11:56:17;;;;;;;30.97;15.20;;;11.40;99.90;;;;;;5070543;28;20664;-67
2021/07/08 11:58:44;;;;;;;25.37;14.43;;;11.30;99.90;;;;;;5086734;28;20175;-72
2021/07/08 12:01:16;;;;;;;28.03;14.23;;;11.30;99.90;;;;;;5063404;28;20171;-70
2021/07/08 12:03:47;;;;;;;21.47;13.20;;;11.20;99.90;;;;;;5033133;28;20180;-68
2021/07/08 12:06:22;;;;;;;25.33;13.77;;;11.20;99.90;;;;;;5071286;28;20273;-68
2021/07/08 12:09:11;;;;;;;27.97;14.13;;;11.10;99.90;;;;;;5078421;28;20185;-67
2021/07/08 12:11:42;;;;;;;26.00;14.17;;;11.10;99.90;;;;;;5077255;28;20183;-68
2021/07/08 12:14:17;;;;;;;29.20;16.00;;;11.00;99.90;;;;;;5077395;28;20226;-74
2021/07/08 12:16:54;;;;;;;27.17;13.07;;;11.00;99.90;;;;;;5077305;28;20175;-69
2021/07/08 12:19:28;;;;;;;26.17;14.27;;;11.00;99.90;;;;;;5082523;28;20178;-71
2021/07/08 12:22:05;;;;;;;38.57;14.83;;;10.90;99.90;;;;;;5075391;28;20715;-68
2021/07/08 12:24:36;;;;;;;23.50;13.03;;;10.90;99.90;;;;;;5085518;28;20217;-73
2021/07/08 12:27:08;;;;;;;26.57;14.87;;;10.90;99.90;;;;;;5081201;28;20190;-71
2021/07/08 12:29:37;;;;;;;25.50;14.27;;;10.80;99.90;;;;;;5077813;28;20742;-69
2021/07/08 12:32:11;;;;;;;26.10;14.00;;;10.90;99.90;;;;;;5077883;28;20191;-68
2021/07/08 12:34:55;;;;;;;28.30;14.27;;;10.80;99.90;;;;;;5076354;28;20178;-69
2021/07/08 12:37:28;;;;;;;23.30;14.23;;;10.90;99.90;;;;;;5075299;28;20199;-69
2021/07/08 12:39:58;;;;;;;22.37;13.70;;;10.90;99.90;;;;;;5087688;28;20220;-74
2021/07/08 12:42:35;;;;;;;27.73;14.20;;;10.90;99.90;;;;;;5075796;28;20250;-74
2021/07/08 12:45:06;;;;;;;25.53;13.83;;;10.90;99.90;;;;;;5082546;28;20222;-68
2021/07/08 12:47:34;;;;;;;28.77;14.47;;;10.90;99.90;;;;;;5074900;28;20179;-68
2021/07/08 12:50:03;;;;;;;27.77;14.73;;;10.90;99.90;;;;;;5075814;28;20199;-68
2021/07/08 12:52:31;;;;;;;27.30;13.97;;;10.90;99.90;;;;;;5065921;28;20208;-67
2021/07/08 12:54:59;;;;;;;27.07;13.87;;;10.90;99.90;;;;;;5074801;28;20277;-72
2021/07/08 12:57:26;;;;;;;29.33;13.60;;;10.90;99.90;;;;;;5075314;28;20240;-68
2021/07/08 12:59:55;;;;;;;30.50;15.43;;;10.80;99.90;;;;;;5054709;28;20176;-67